Hosei Maru No.226 — JD3837 — position and weather

sailwx.info

Track history (hours):
 
Tides and Currents Weather Stations Pressure Air Temp Water Temp Dewpoint Dewpoint Depression Visibility Wind Speed Wind Dir Waves Ship Positions

Hosei Maru No.226

Last reported at 2017-Dec-10 09:09 UTC. Time now 2017-Dec-11 21:18 UTC.
Position N 34°58' E 140°07'.

Length 78 m; draft 4.5 m.

Type: Cargo ship. MMSI: 431203000.

Date/timePositionNaut miles runAvg speedWind from/ knotsBaromVisibWave heightAir tempDewpointWater temp
2017-Dec-10 09:09N 34°58' E 140°07'1911.5
2017-Dec-10 07:30N 34°57' E 139°44'611.8
2017-Dec-10 07:00N 35°03' E 139°44'611.7
2017-Dec-10 06:30N 35°09' E 139°46'611.4
2017-Dec-10 06:00N 35°14' E 139°47'611.8
2017-Dec-10 05:30N 35°19' E 139°43'611.1
2017-Dec-10 05:01N 35°25' E 139°43'611.2
2017-Dec-10 04:30N 35°29' E 139°48'2 3.9
2017-Dec-10 04:00N 35°30' E 139°50'0 0.5
2017-Dec-10 03:30N 35°30' E 139°50'611.9
2017-Dec-10 03:00N 35°24' E 139°48'3 5.4
2017-Dec-10 02:29N 35°22' E 139°51'0 0.0
2017-Dec-10 01:59N 35°22' E 139°51'0 0.0
2017-Dec-10 01:26N 35°22' E 139°51'0 0.0
2017-Dec-10 00:59N 35°22' E 139°51'0 0.0
2017-Dec-10 00:29N 35°22' E 139°51'0 0.0
2017-Dec-09 23:59N 35°22' E 139°51'0 0.1
2017-Dec-09 23:29N 35°22' E 139°51'0 0.1
2017-Dec-09 22:56N 35°22' E 139°51'0 0.0
2017-Dec-09 22:29N 35°22' E 139°51'0 0.0
2017-Dec-09 21:59N 35°22' E 139°51'1 2.5
2017-Dec-09 21:29N 35°22' E 139°49'0 0.0
2017-Dec-09 20:59N 35°22' E 139°49'0 0.1
2017-Dec-09 20:29N 35°22' E 139°49'0 0.1
2017-Dec-09 19:59N 35°22' E 139°49'0 0.0
2017-Dec-09 19:29N 35°22' E 139°49'0 0.1
2017-Dec-09 18:56N 35°22' E 139°49'0 0.0
2017-Dec-09 18:29N 35°22' E 139°49'0 0.1
2017-Dec-09 17:59N 35°22' E 139°49'0 0.0
2017-Dec-09 17:26N 35°22' E 139°49'0 0.0
2017-Dec-09 16:59N 35°22' E 139°49'0 0.0
2017-Dec-09 16:29N 35°22' E 139°49'0 0.0
2017-Dec-09 15:59N 35°22' E 139°49'0 0.0
2017-Dec-09 15:29N 35°22' E 139°49'0 0.0
2017-Dec-09 14:59N 35°22' E 139°49'0 0.0
2017-Dec-09 14:29N 35°22' E 139°49'0 0.0
2017-Dec-09 13:56N 35°22' E 139°49'0 0.0
2017-Dec-09 13:29N 35°22' E 139°49'0 0.0
2017-Dec-09 12:59N 35°22' E 139°49'0 0.0
2017-Dec-09 12:29N 35°22' E 139°49'0 0.0
2017-Dec-09 11:59N 35°22' E 139°49'0 0.0
2017-Dec-09 11:29N 35°22' E 139°49'0 0.0
2017-Dec-09 10:59N 35°22' E 139°49'0 0.0
2017-Dec-09 10:29N 35°22' E 139°49'0 0.0
2017-Dec-09 09:59N 35°22' E 139°49'0 0.0
2017-Dec-09 09:28N 35°22' E 139°49'0 0.0
2017-Dec-09 08:59N 35°22' E 139°49'3 5.8
2017-Dec-09 08:30N 35°23' E 139°46'611.5
2017-Dec-09 08:00N 35°17' E 139°46'612.6
2017-Dec-09 07:30N 35°10' E 139°46'713.2
2017-Dec-09 07:00N 35°04' E 139°45'713.3
2017-Dec-09 06:30N 34°57' E 139°44'1311.0
2017-Dec-09 05:21N 34°54' E 139°59'713.8
2017-Dec-09 04:51N 34°57' E 140°06'  
2017-Dec-04 07:45N 33°55' E 135°00'312.1
2017-Dec-04 07:30N 33°58' E 135°00'612.4
2017-Dec-04 07:00N 34°04' E 135°02'612.4
2017-Dec-04 06:30N 34°10' E 135°04'510.3
2017-Dec-04 06:00N 34°14' E 135°06'0 0.2
2017-Dec-04 05:26N 34°14' E 135°06'0 0.0
2017-Dec-04 04:59N 34°14' E 135°06'0 0.0
2017-Dec-04 04:29N 34°14' E 135°06'0 0.0
2017-Dec-04 03:59N 34°14' E 135°06'0 0.0
2017-Dec-04 03:29N 34°14' E 135°06'0 0.0
2017-Dec-04 02:59N 34°14' E 135°06'0 0.0
2017-Dec-04 02:29N 34°14' E 135°06'0 0.0
2017-Dec-04 01:59N 34°14' E 135°06'0 0.0
2017-Dec-04 01:29N 34°14' E 135°06'0 0.0
2017-Dec-04 00:59N 34°14' E 135°06'0 0.0
2017-Dec-04 00:29N 34°14' E 135°06'0 0.0
2017-Dec-03 23:59N 34°14' E 135°06'0 0.0
2017-Dec-03 23:29N 34°14' E 135°06'0 0.0
2017-Dec-03 22:59N 34°14' E 135°06'0 0.3
2017-Dec-03 22:30N 34°14' E 135°06'2 3.6
2017-Dec-03 21:58N 34°12' E 135°07'0 0.0
2017-Dec-03 21:28N 34°12' E 135°07'0 0.1
2017-Dec-03 20:58N 34°12' E 135°07'0 0.0
2017-Dec-03 20:28N 34°12' E 135°07'0 0.1
2017-Dec-03 19:58N 34°12' E 135°07'0 0.1
2017-Dec-03 19:28N 34°12' E 135°07'0 0.0
2017-Dec-03 18:58N 34°12' E 135°07'0 0.0
2017-Dec-03 18:28N 34°12' E 135°07'0 0.0
2017-Dec-03 17:58N 34°12' E 135°07'0 0.0
2017-Dec-03 17:28N 34°12' E 135°07'0 0.0
2017-Dec-03 16:58N 34°12' E 135°07'0 0.0
2017-Dec-03 16:28N 34°12' E 135°07'0 0.0
2017-Dec-03 15:58N 34°12' E 135°07'0 0.0
2017-Dec-03 15:28N 34°12' E 135°07'0 0.0
2017-Dec-03 14:58N 34°12' E 135°07'0 0.0
2017-Dec-03 14:28N 34°12' E 135°07'0 0.0
2017-Dec-03 13:58N 34°12' E 135°07'0 0.0
2017-Dec-03 13:28N 34°12' E 135°07'0 0.0
2017-Dec-03 12:58N 34°12' E 135°07'0 0.0
2017-Dec-03 12:28N 34°12' E 135°07'0 0.0
2017-Dec-03 11:58N 34°12' E 135°07'0 0.0
2017-Dec-03 11:28N 34°12' E 135°07'0 0.0
2017-Dec-03 10:58N 34°12' E 135°07'0 0.0
2017-Dec-03 10:28N 34°12' E 135°07'0 0.1
2017-Dec-03 09:58N 34°12' E 135°07'0 0.1
2017-Dec-03 09:28N 34°12' E 135°07'0 0.1
2017-Dec-03 08:58N 34°12' E 135°07'0 0.0
2017-Dec-03 08:28N 34°12' E 135°07'0 0.0
2017-Dec-03 07:58N 34°12' E 135°07'0 0.0
2017-Dec-03 07:28N 34°12' E 135°07'0 0.0
2017-Dec-03 06:58N 34°12' E 135°07'0 0.0
2017-Dec-03 06:28N 34°12' E 135°07'0 0.0
2017-Dec-03 05:58N 34°12' E 135°07'4 7.9
2017-Dec-03 05:30N 34°09' E 135°05'612.3
2017-Dec-03 05:00N 34°03' E 135°03'612.5
2017-Dec-03 04:30N 33°57' E 135°02'711.4
2017-Dec-03 03:52N 33°50' E 135°04'83 9.4
2017-Dec-02 19:01N 34°04' E 136°43'012.4
2017-Dec-02 19:00N 34°04' E 136°43'5712.9
2017-Dec-02 14:38N 34°30' E 137°44'313.0
2017-Dec-02 14:24N 34°31' E 137°47'512.3
2017-Dec-02 14:00N 34°31' E 137°53'812.1
2017-Dec-02 13:23N 34°32' E 138°02'812.6
2017-Dec-02 12:45N 34°33' E 138°12'411.9
2017-Dec-02 12:28N 34°33' E 138°16'811.6
2017-Dec-02 11:44N 34°33' E 138°26'411.3
2017-Dec-02 11:25N 34°33' E 138°31'511.4
2017-Dec-02 10:57N 34°34' E 138°37'711.2
2017-Dec-02 10:21N 34°34' E 138°45'411.1
2017-Dec-02 10:01N 34°34' E 138°50'610.9
2017-Dec-02 09:30N 34°36' E 138°57'612.3
2017-Dec-02 09:00N 34°40' E 139°02'712.6
2017-Dec-02 08:28N 34°45' E 139°07'712.7
2017-Dec-02 07:57N 34°51' E 139°12'612.3
2017-Dec-02 07:29N 34°51' E 139°18'613.0
2017-Dec-02 07:00N 34°51' E 139°26'713.6
2017-Dec-02 06:30N 34°51' E 139°34'812.0
2017-Dec-02 05:53N 34°51' E 139°44'712.8
2017-Dec-02 05:20N 34°52' E 139°52'612.8
2017-Dec-02 04:52N 34°54' E 139°59'712.0
2017-Dec-02 04:18N 34°58' E 140°06'  
Track history (hours):
 
Tides and Currents Weather Stations Pressure Air Temp Water Temp Dewpoint Dewpoint Depression Visibility Wind Speed Wind Dir Waves Ship Positions

Hosei Maru No.226

Last reported at 2017-Dec-10 09:09 UTC. Time now 2017-Dec-11 21:18 UTC.
Position N 34°58' E 140°07'.

Length 78 m; draft 4.5 m.

Type: Cargo ship. MMSI: 431203000.

Date/timePositionNaut miles runAvg speedWind from/ knotsBaromVisibWave heightAir tempDewpointWater temp
2017-Dec-10 09:09N 34°58' E 140°07'1911.5
2017-Dec-10 07:30N 34°57' E 139°44'611.8
2017-Dec-10 07:00N 35°03' E 139°44'611.7
2017-Dec-10 06:30N 35°09' E 139°46'611.4
2017-Dec-10 06:00N 35°14' E 139°47'611.8
2017-Dec-10 05:30N 35°19' E 139°43'611.1
2017-Dec-10 05:01N 35°25' E 139°43'611.2
2017-Dec-10 04:30N 35°29' E 139°48'2 3.9
2017-Dec-10 04:00N 35°30' E 139°50'0 0.5
2017-Dec-10 03:30N 35°30' E 139°50'611.9
2017-Dec-10 03:00N 35°24' E 139°48'3 5.4
2017-Dec-10 02:29N 35°22' E 139°51'0 0.0
2017-Dec-10 01:59N 35°22' E 139°51'0 0.0
2017-Dec-10 01:26N 35°22' E 139°51'0 0.0
2017-Dec-10 00:59N 35°22' E 139°51'0 0.0
2017-Dec-10 00:29N 35°22' E 139°51'0 0.0
2017-Dec-09 23:59N 35°22' E 139°51'0 0.1
2017-Dec-09 23:29N 35°22' E 139°51'0 0.1
2017-Dec-09 22:56N 35°22' E 139°51'0 0.0
2017-Dec-09 22:29N 35°22' E 139°51'0 0.0
2017-Dec-09 21:59N 35°22' E 139°51'1 2.5
2017-Dec-09 21:29N 35°22' E 139°49'0 0.0
2017-Dec-09 20:59N 35°22' E 139°49'0 0.1
2017-Dec-09 20:29N 35°22' E 139°49'0 0.1
2017-Dec-09 19:59N 35°22' E 139°49'0 0.0
2017-Dec-09 19:29N 35°22' E 139°49'0 0.1
2017-Dec-09 18:56N 35°22' E 139°49'0 0.0
2017-Dec-09 18:29N 35°22' E 139°49'0 0.1
2017-Dec-09 17:59N 35°22' E 139°49'0 0.0
2017-Dec-09 17:26N 35°22' E 139°49'0 0.0
2017-Dec-09 16:59N 35°22' E 139°49'0 0.0
2017-Dec-09 16:29N 35°22' E 139°49'0 0.0
2017-Dec-09 15:59N 35°22' E 139°49'0 0.0
2017-Dec-09 15:29N 35°22' E 139°49'0 0.0
2017-Dec-09 14:59N 35°22' E 139°49'0 0.0
2017-Dec-09 14:29N 35°22' E 139°49'0 0.0
2017-Dec-09 13:56N 35°22' E 139°49'0 0.0
2017-Dec-09 13:29N 35°22' E 139°49'0 0.0
2017-Dec-09 12:59N 35°22' E 139°49'0 0.0
2017-Dec-09 12:29N 35°22' E 139°49'0 0.0
2017-Dec-09 11:59N 35°22' E 139°49'0 0.0
2017-Dec-09 11:29N 35°22' E 139°49'0 0.0
2017-Dec-09 10:59N 35°22' E 139°49'0 0.0
2017-Dec-09 10:29N 35°22' E 139°49'0 0.0
2017-Dec-09 09:59N 35°22' E 139°49'0 0.0
2017-Dec-09 09:28N 35°22' E 139°49'0 0.0
2017-Dec-09 08:59N 35°22' E 139°49'3 5.8
2017-Dec-09 08:30N 35°23' E 139°46'611.5
2017-Dec-09 08:00N 35°17' E 139°46'612.6
2017-Dec-09 07:30N 35°10' E 139°46'713.2
2017-Dec-09 07:00N 35°04' E 139°45'713.3
2017-Dec-09 06:30N 34°57' E 139°44'1311.0
2017-Dec-09 05:21N 34°54' E 139°59'713.8
2017-Dec-09 04:51N 34°57' E 140°06'  
2017-Dec-04 07:45N 33°55' E 135°00'312.1
2017-Dec-04 07:30N 33°58' E 135°00'612.4
2017-Dec-04 07:00N 34°04' E 135°02'612.4
2017-Dec-04 06:30N 34°10' E 135°04'510.3
2017-Dec-04 06:00N 34°14' E 135°06'0 0.2
2017-Dec-04 05:26N 34°14' E 135°06'0 0.0
2017-Dec-04 04:59N 34°14' E 135°06'0 0.0
2017-Dec-04 04:29N 34°14' E 135°06'0 0.0
2017-Dec-04 03:59N 34°14' E 135°06'0 0.0
2017-Dec-04 03:29N 34°14' E 135°06'0 0.0
2017-Dec-04 02:59N 34°14' E 135°06'0 0.0
2017-Dec-04 02:29N 34°14' E 135°06'0 0.0
2017-Dec-04 01:59N 34°14' E 135°06'0 0.0
2017-Dec-04 01:29N 34°14' E 135°06'0 0.0
2017-Dec-04 00:59N 34°14' E 135°06'0 0.0
2017-Dec-04 00:29N 34°14' E 135°06'0 0.0
2017-Dec-03 23:59N 34°14' E 135°06'0 0.0
2017-Dec-03 23:29N 34°14' E 135°06'0 0.0
2017-Dec-03 22:59N 34°14' E 135°06'0 0.3
2017-Dec-03 22:30N 34°14' E 135°06'2 3.6
2017-Dec-03 21:58N 34°12' E 135°07'0 0.0
2017-Dec-03 21:28N 34°12' E 135°07'0 0.1
2017-Dec-03 20:58N 34°12' E 135°07'0 0.0
2017-Dec-03 20:28N 34°12' E 135°07'0 0.1
2017-Dec-03 19:58N 34°12' E 135°07'0 0.1
2017-Dec-03 19:28N 34°12' E 135°07'0 0.0
2017-Dec-03 18:58N 34°12' E 135°07'0 0.0
2017-Dec-03 18:28N 34°12' E 135°07'0 0.0
2017-Dec-03 17:58N 34°12' E 135°07'0 0.0
2017-Dec-03 17:28N 34°12' E 135°07'0 0.0
2017-Dec-03 16:58N 34°12' E 135°07'0 0.0
2017-Dec-03 16:28N 34°12' E 135°07'0 0.0
2017-Dec-03 15:58N 34°12' E 135°07'0 0.0
2017-Dec-03 15:28N 34°12' E 135°07'0 0.0
2017-Dec-03 14:58N 34°12' E 135°07'0 0.0
2017-Dec-03 14:28N 34°12' E 135°07'0 0.0
2017-Dec-03 13:58N 34°12' E 135°07'0 0.0
2017-Dec-03 13:28N 34°12' E 135°07'0 0.0
2017-Dec-03 12:58N 34°12' E 135°07'0 0.0
2017-Dec-03 12:28N 34°12' E 135°07'0 0.0
2017-Dec-03 11:58N 34°12' E 135°07'0 0.0
2017-Dec-03 11:28N 34°12' E 135°07'0 0.0
2017-Dec-03 10:58N 34°12' E 135°07'0 0.0
2017-Dec-03 10:28N 34°12' E 135°07'0 0.1
2017-Dec-03 09:58N 34°12' E 135°07'0 0.1
2017-Dec-03 09:28N 34°12' E 135°07'0 0.1
2017-Dec-03 08:58N 34°12' E 135°07'0 0.0
2017-Dec-03 08:28N 34°12' E 135°07'0 0.0
2017-Dec-03 07:58N 34°12' E 135°07'0 0.0
2017-Dec-03 07:28N 34°12' E 135°07'0 0.0
2017-Dec-03 06:58N 34°12' E 135°07'0 0.0
2017-Dec-03 06:28N 34°12' E 135°07'0 0.0
2017-Dec-03 05:58N 34°12' E 135°07'4 7.9
2017-Dec-03 05:30N 34°09' E 135°05'612.3
2017-Dec-03 05:00N 34°03' E 135°03'612.5
2017-Dec-03 04:30N 33°57' E 135°02'711.4
2017-Dec-03 03:52N 33°50' E 135°04'83 9.4
2017-Dec-02 19:01N 34°04' E 136°43'012.4
2017-Dec-02 19:00N 34°04' E 136°43'5712.9
2017-Dec-02 14:38N 34°30' E 137°44'313.0
2017-Dec-02 14:24N 34°31' E 137°47'512.3
2017-Dec-02 14:00N 34°31' E 137°53'812.1
2017-Dec-02 13:23N 34°32' E 138°02'812.6
2017-Dec-02 12:45N 34°33' E 138°12'411.9
2017-Dec-02 12:28N 34°33' E 138°16'811.6
2017-Dec-02 11:44N 34°33' E 138°26'411.3
2017-Dec-02 11:25N 34°33' E 138°31'511.4
2017-Dec-02 10:57N 34°34' E 138°37'711.2
2017-Dec-02 10:21N 34°34' E 138°45'411.1
2017-Dec-02 10:01N 34°34' E 138°50'610.9
2017-Dec-02 09:30N 34°36' E 138°57'612.3
2017-Dec-02 09:00N 34°40' E 139°02'712.6
2017-Dec-02 08:28N 34°45' E 139°07'712.7
2017-Dec-02 07:57N 34°51' E 139°12'612.3
2017-Dec-02 07:29N 34°51' E 139°18'613.0
2017-Dec-02 07:00N 34°51' E 139°26'713.6
2017-Dec-02 06:30N 34°51' E 139°34'812.0
2017-Dec-02 05:53N 34°51' E 139°44'712.8
2017-Dec-02 05:20N 34°52' E 139°52'612.8
2017-Dec-02 04:52N 34°54' E 139°59'712.0
2017-Dec-02 04:18N 34°58' E 140°06'  

Dump ship's entire track history